createdAt,value
2018-11-27T00:00:30.396Z,63.60
2018-11-27T00:03:02.075Z,63.60
2018-11-27T00:05:31.315Z,63.40
2018-11-27T00:07:59.948Z,63.30
2018-11-27T00:10:30.087Z,63.60
2018-11-27T00:12:58.369Z,63.40
2018-11-27T00:15:26.546Z,63.10
2018-11-27T00:17:59.763Z,63.70
2018-11-27T00:20:28.367Z,63.40
2018-11-27T00:22:56.656Z,63.20
2018-11-27T00:25:26.456Z,63.40
2018-11-27T00:27:54.709Z,64.50
2018-11-27T00:30:22.879Z,63.60
2018-11-27T00:32:53.615Z,63.50
2018-11-27T00:35:21.761Z,64.00
2018-11-27T00:37:55.047Z,65.30
2018-11-27T00:40:23.758Z,66.10
2018-11-27T00:42:51.916Z,66.50
2018-11-27T00:45:20.967Z,67.10
2018-11-27T00:47:50.275Z,66.80
2018-11-27T00:50:21.097Z,67.10
2018-11-27T00:52:49.192Z,68.50
2018-11-27T00:55:18.658Z,67.30
2018-11-27T00:57:48.844Z,68.30
2018-11-27T01:00:19.462Z,67.60
2018-11-27T01:02:47.652Z,69.00
2018-11-27T01:05:17.518Z,69.80
2018-11-27T01:07:45.796Z,70.00
2018-11-27T01:10:22.204Z,69.10
2018-11-27T01:12:50.395Z,69.30
2018-11-27T01:15:18.669Z,70.60
2018-11-27T01:17:51.403Z,71.00
2018-11-27T01:20:20.974Z,70.20
2018-11-27T01:22:49.248Z,72.00
2018-11-27T01:25:17.505Z,73.00
2018-11-27T01:27:45.736Z,73.70
2018-11-27T01:30:18.587Z,75.00
2018-11-27T01:32:47.205Z,77.20
2018-11-27T01:35:20.280Z,77.20
2018-11-27T01:37:50.186Z,77.20
2018-11-27T01:40:21.801Z,76.70
2018-11-27T01:42:51.252Z,77.30
2018-11-27T01:45:20.351Z,76.80
2018-11-27T01:47:48.864Z,76.90
2018-11-27T01:50:18.009Z,76.10
2018-11-27T01:52:46.170Z,77.30
2018-11-27T01:55:16.594Z,76.30
2018-11-27T01:57:44.963Z,77.40
2018-11-27T02:00:20.111Z,77.30
2018-11-27T02:02:48.290Z,77.30
2018-11-27T02:05:16.437Z,77.30
2018-11-27T02:07:44.579Z,76.30
2018-11-27T02:10:13.166Z,76.00
2018-11-27T02:12:43.868Z,75.60
2018-11-27T02:15:14.954Z,72.10
2018-11-27T02:17:43.197Z,74.30
2018-11-27T02:20:12.010Z,73.90
2018-11-27T02:22:40.667Z,73.00
2018-11-27T02:25:18.411Z,75.00
2018-11-27T02:27:46.607Z,75.80
2018-11-27T02:30:16.912Z,76.10
2018-11-27T02:32:45.047Z,76.40
2018-11-27T02:35:18.636Z,77.20
2018-11-27T02:37:48.683Z,77.30
2018-11-27T02:40:17.730Z,76.70
2018-11-27T02:42:45.878Z,76.40
2018-11-27T02:45:16.065Z,75.90
2018-11-27T02:47:45.115Z,75.90
2018-11-27T02:50:15.901Z,76.60
2018-11-27T02:52:44.070Z,76.60
2018-11-27T02:55:14.520Z,75.20
2018-11-27T02:57:47.856Z,75.90
2018-11-27T03:00:20.357Z,76.80
2018-11-27T03:02:48.457Z,76.20
2018-11-27T03:05:35.921Z,77.00
2018-11-27T03:08:04.206Z,75.80
2018-11-27T03:10:32.709Z,76.20
2018-11-27T03:13:00.903Z,74.90
2018-11-27T03:15:29.096Z,72.20
2018-11-27T03:18:02.883Z,71.40
2018-11-27T03:20:31.006Z,72.00
2018-11-27T03:22:59.296Z,74.90
2018-11-27T03:25:27.943Z,74.30
2018-11-27T03:28:05.907Z,74.80
2018-11-27T03:30:34.067Z,75.60
2018-11-27T03:33:03.065Z,75.90
2018-11-27T03:35:31.273Z,77.30
2018-11-27T03:38:28.361Z,77.30
2018-11-27T03:40:56.549Z,77.30
2018-11-27T03:43:24.657Z,77.40
2018-11-27T03:45:52.772Z,76.40
2018-11-27T03:48:50.291Z,75.60
2018-11-27T03:51:18.475Z,76.00
2018-11-27T03:53:46.711Z,73.70
2018-11-27T03:56:14.876Z,72.80
2018-11-27T03:58:44.338Z,73.30
2018-11-27T04:01:12.530Z,74.20
2018-11-27T04:03:40.717Z,73.40
2018-11-27T04:06:38.278Z,72.90
2018-11-27T04:09:09.323Z,73.30
2018-11-27T04:11:37.466Z,72.20
2018-11-27T04:14:06.281Z,74.30
2018-11-27T04:19:34.480Z,73.90
2018-11-27T04:22:02.607Z,74.20
2018-11-27T04:24:30.759Z,74.00
2018-11-27T04:26:58.954Z,75.60
2018-11-27T04:29:27.119Z,74.80
2018-11-27T04:31:55.287Z,76.40
2018-11-27T04:34:23.495Z,75.40
2018-11-27T04:36:56.872Z,75.80
2018-11-27T04:39:24.994Z,75.00
2018-11-27T04:41:54.892Z,74.80
2018-11-27T04:44:23.003Z,74.70
2018-11-27T04:46:56.190Z,74.10
2018-11-27T04:49:24.323Z,74.60
2018-11-27T04:51:52.460Z,76.10
2018-11-27T04:54:20.644Z,77.20
2018-11-27T04:56:48.842Z,76.90
2018-11-27T04:59:17.092Z,76.00
2018-11-27T05:01:45.271Z,74.40
2018-11-27T05:04:13.462Z,75.60
2018-11-27T05:06:46.857Z,74.60
2018-11-27T05:09:15.045Z,75.30
2018-11-27T05:11:43.243Z,75.00
2018-11-27T05:14:11.534Z,74.70
2018-11-27T05:16:39.756Z,75.40
2018-11-27T05:19:07.950Z,74.40
2018-11-27T05:21:36.106Z,74.20
2018-11-27T05:24:04.948Z,74.40
2018-11-27T05:26:33.225Z,74.80
2018-11-27T05:29:01.389Z,74.70
2018-11-27T05:31:29.570Z,74.40
2018-11-27T05:33:57.926Z,75.60
2018-11-27T05:39:30.821Z,75.40
2018-11-27T05:41:58.953Z,76.50
2018-11-27T05:44:27.061Z,75.60
2018-11-27T05:46:56.701Z,77.10
2018-11-27T05:49:26.713Z,77.70
2018-11-27T05:51:54.995Z,77.60
2018-11-27T05:54:23.872Z,80.20
2018-11-27T06:00:19.194Z,80.50
2018-11-27T06:02:49.116Z,80.10
2018-11-27T06:05:19.005Z,78.70
2018-11-27T06:08:16.269Z,78.70
2018-11-27T06:10:44.517Z,79.60
2018-11-27T06:13:12.802Z,79.50
2018-11-27T06:15:40.965Z,79.20
2018-11-27T06:18:09.281Z,77.80
2018-11-27T06:20:37.485Z,78.80
2018-11-27T06:23:06.041Z,79.20
2018-11-27T06:25:34.192Z,79.80
2018-11-27T06:28:04.671Z,79.10
2018-11-27T06:30:35.370Z,78.20
2018-11-27T06:33:06.328Z,78.40
2018-11-27T06:35:36.875Z,76.70
2018-11-27T06:38:08.138Z,77.00
2018-11-27T06:40:36.329Z,77.00
2018-11-27T06:43:06.580Z,75.70
2018-11-27T06:45:34.778Z,76.10
2018-11-27T06:48:03.021Z,76.30
2018-11-27T06:50:31.507Z,76.80
2018-11-27T06:52:59.727Z,77.10
2018-11-27T06:55:27.852Z,76.30
2018-11-27T06:57:55.996Z,76.00
2018-11-27T07:00:26.734Z,74.90
2018-11-27T07:02:59.258Z,74.90
2018-11-27T07:05:30.144Z,75.40
2018-11-27T07:07:58.324Z,75.10
2018-11-27T07:10:32.371Z,75.80
2018-11-27T07:13:09.477Z,75.70
2018-11-27T07:15:37.632Z,75.60
2018-11-27T07:18:07.515Z,75.40
2018-11-27T07:20:36.774Z,75.10
2018-11-27T07:23:05.644Z,75.30
2018-11-27T07:25:33.778Z,76.10
2018-11-27T07:28:01.956Z,76.00
2018-11-27T07:30:30.129Z,75.10
2018-11-27T07:32:58.261Z,76.30
2018-11-27T07:35:26.516Z,76.90
2018-11-27T07:37:54.852Z,76.50
2018-11-27T07:40:26.090Z,76.90
2018-11-27T07:42:57.046Z,77.00
2018-11-27T07:45:25.443Z,75.50
2018-11-27T07:47:53.951Z,76.40
2018-11-27T07:50:22.135Z,76.00
2018-11-27T07:52:50.325Z,75.20
2018-11-27T07:55:20.022Z,76.40
2018-11-27T07:58:02.437Z,76.30
2018-11-27T08:00:30.608Z,75.80
2018-11-27T08:02:59.163Z,74.70
2018-11-27T08:05:36.966Z,74.80
2018-11-27T08:08:34.239Z,75.50
2018-11-27T08:11:02.413Z,75.60
2018-11-27T08:13:30.656Z,74.00
2018-11-27T08:15:58.958Z,75.20
2018-11-27T08:18:27.146Z,73.10
2018-11-27T08:20:55.348Z,75.10
2018-11-27T08:23:23.526Z,73.80
2018-11-27T08:25:51.686Z,72.90
2018-11-27T08:28:21.630Z,72.30
2018-11-27T08:30:49.801Z,73.20
2018-11-27T08:33:17.963Z,73.30
2018-11-27T08:35:46.095Z,71.90
2018-11-27T08:38:14.219Z,72.90
2018-11-27T08:40:42.359Z,73.00
2018-11-27T08:43:10.629Z,73.30
2018-11-27T08:45:38.885Z,73.20
2018-11-27T08:48:07.483Z,72.50
2018-11-27T08:50:35.717Z,72.10
2018-11-27T08:53:05.911Z,70.60
2018-11-27T08:55:38.131Z,71.50
2018-11-27T08:58:16.046Z,71.90
2018-11-27T09:00:44.163Z,71.90
2018-11-27T09:03:12.353Z,72.00
2018-11-27T09:05:40.583Z,72.50
2018-11-27T09:08:09.857Z,71.90
2018-11-27T09:10:38.073Z,73.40
2018-11-27T09:13:06.814Z,72.90
2018-11-27T09:15:35.243Z,72.60
2018-11-27T09:18:35.254Z,73.10
2018-11-27T09:21:03.432Z,72.50
2018-11-27T09:23:31.591Z,72.40
2018-11-27T09:25:59.742Z,73.80
2018-11-27T09:28:27.884Z,71.80
2018-11-27T09:30:57.617Z,71.80
2018-11-27T09:33:25.828Z,71.80
2018-11-27T09:35:54.039Z,71.80
2018-11-27T09:38:22.442Z,71.30
2018-11-27T09:40:50.633Z,69.20
2018-11-27T09:43:18.768Z,70.20
2018-11-27T09:45:48.188Z,70.40
2018-11-27T09:48:21.838Z,70.50
2018-11-27T09:50:49.978Z,69.70
2018-11-27T09:53:18.167Z,70.90
2018-11-27T09:55:46.334Z,69.30
2018-11-27T09:58:19.608Z,70.00
2018-11-27T10:00:47.782Z,69.50
2018-11-27T10:03:16.270Z,69.10
2018-11-27T10:05:44.512Z,69.30
2018-11-27T10:08:12.867Z,67.70
2018-11-27T10:10:41.012Z,68.90
2018-11-27T10:13:09.144Z,67.80
2018-11-27T10:15:37.365Z,68.40
2018-11-27T10:18:05.927Z,67.90
2018-11-27T10:20:39.022Z,67.10
2018-11-27T10:23:12.787Z,66.40
2018-11-27T10:25:40.977Z,68.20
2018-11-27T10:28:09.204Z,67.60
2018-11-27T10:30:37.470Z,68.00
2018-11-27T10:33:08.888Z,66.60
2018-11-27T10:35:48.719Z,66.60
2018-11-27T10:38:17.012Z,66.60
2018-11-27T10:40:45.884Z,66.60
2018-11-27T10:43:19.507Z,66.70
2018-11-27T10:45:42.342Z,67.40
2018-11-27T10:48:10.529Z,66.70
2018-11-27T10:50:38.710Z,66.60
2018-11-27T10:53:10.446Z,66.40
2018-11-27T10:55:38.598Z,66.60
2018-11-27T10:58:07.139Z,66.60
2018-11-27T11:00:41.776Z,66.70
2018-11-27T11:03:25.464Z,66.60
2018-11-27T11:05:54.769Z,66.70
2018-11-27T11:08:23.163Z,66.70
2018-11-27T11:10:51.349Z,66.70
2018-11-27T11:13:19.491Z,66.10
2018-11-27T11:15:48.098Z,66.70
2018-11-27T11:18:16.320Z,66.70
2018-11-27T11:20:44.535Z,65.20
2018-11-27T11:23:12.713Z,66.30
2018-11-27T11:25:40.898Z,65.70
2018-11-27T11:28:09.670Z,64.80
2018-11-27T11:30:37.865Z,63.70
2018-11-27T11:33:07.652Z,64.60
2018-11-27T11:35:35.858Z,64.70
2018-11-27T11:38:09.173Z,63.40
2018-11-27T11:40:37.381Z,63.90
2018-11-27T11:43:07.058Z,62.30
2018-11-27T11:45:35.283Z,63.00
2018-11-27T11:48:03.654Z,62.30
2018-11-27T11:50:33.648Z,62.70
2018-11-27T11:53:11.054Z,61.40
2018-11-27T11:55:39.182Z,62.80
2018-11-27T11:58:08.113Z,62.40
2018-11-27T12:00:39.857Z,61.50
2018-11-27T12:03:08.077Z,63.50
2018-11-27T12:05:36.804Z,61.30
2018-11-27T12:08:07.003Z,60.70
2018-11-27T12:10:35.974Z,60.90
2018-11-27T12:13:04.997Z,61.50
2018-11-27T12:15:33.191Z,61.60
2018-11-27T12:18:01.353Z,62.30
2018-11-27T12:20:29.604Z,61.50
2018-11-27T12:22:57.889Z,59.90
2018-11-27T12:25:26.037Z,60.60
2018-11-27T12:27:54.239Z,60.30
2018-11-27T12:30:24.129Z,61.20
2018-11-27T12:32:52.938Z,60.80
2018-11-27T12:35:21.620Z,61.40
2018-11-27T12:37:50.003Z,60.50
2018-11-27T12:40:22.840Z,61.20
2018-11-27T12:42:51.290Z,60.60
2018-11-27T12:45:28.510Z,59.40
2018-11-27T12:47:58.155Z,59.00
2018-11-27T12:50:33.999Z,59.30
2018-11-27T12:53:02.334Z,60.00
2018-11-27T12:55:30.554Z,59.40
2018-11-27T12:57:58.800Z,59.30
2018-11-27T13:00:27.028Z,58.60
2018-11-27T13:02:55.230Z,59.00
2018-11-27T13:05:27.088Z,59.20
2018-11-27T13:08:03.655Z,59.50
2018-11-27T13:10:31.849Z,58.50
2018-11-27T13:13:01.601Z,59.50
2018-11-27T13:15:29.876Z,59.00
2018-11-27T13:17:58.060Z,58.50
2018-11-27T13:20:26.182Z,58.70
2018-11-27T13:22:54.316Z,58.80
2018-11-27T13:25:24.806Z,58.40
2018-11-27T13:27:54.407Z,57.50
2018-11-27T13:31:01.192Z,58.50
2018-11-27T13:33:40.922Z,58.00
2018-11-27T13:36:09.290Z,57.70
2018-11-27T13:38:37.617Z,57.40
2018-11-27T13:41:05.819Z,57.50
2018-11-27T13:43:34.015Z,58.10
2018-11-27T13:46:02.385Z,58.00
2018-11-27T13:48:30.523Z,58.20
2018-11-27T13:50:58.791Z,58.70
2018-11-27T13:53:27.014Z,57.10
2018-11-27T13:55:55.388Z,57.10
2018-11-27T13:58:23.758Z,56.50
2018-11-27T14:00:51.996Z,57.60
2018-11-27T14:03:21.143Z,56.50
2018-11-27T14:05:49.348Z,57.70
2018-11-27T14:08:36.400Z,57.70
2018-11-27T14:11:04.952Z,57.60
2018-11-27T14:13:33.126Z,56.60
2018-11-27T14:16:01.529Z,56.50
2018-11-27T14:18:29.765Z,56.60
2018-11-27T14:20:58.091Z,57.90
2018-11-27T14:23:26.250Z,57.70
2018-11-27T14:25:54.554Z,57.90
2018-11-27T14:28:22.749Z,58.50
2018-11-27T14:30:50.974Z,57.90
2018-11-27T14:33:19.678Z,58.40
2018-11-27T14:35:47.915Z,58.10
2018-11-27T14:38:16.135Z,57.60
2018-11-27T14:40:44.332Z,56.90
2018-11-27T14:43:12.463Z,57.70
2018-11-27T14:45:40.617Z,58.20
2018-11-27T14:48:08.894Z,57.60
2018-11-27T14:50:37.092Z,58.70
2018-11-27T14:53:05.676Z,58.10
2018-11-27T14:55:35.042Z,57.50
2018-11-27T14:58:08.372Z,57.70
2018-11-27T15:00:36.599Z,57.70
2018-11-27T15:03:05.619Z,58.10
2018-11-27T15:05:36.394Z,58.80
2018-11-27T15:08:07.539Z,59.60
2018-11-27T15:10:36.713Z,59.40
2018-11-27T15:13:05.609Z,58.70
2018-11-27T15:15:33.815Z,59.70
2018-11-27T15:18:02.060Z,58.80
2018-11-27T15:20:30.270Z,59.50
2018-11-27T15:22:58.475Z,59.40
2018-11-27T15:25:26.634Z,59.00
2018-11-27T15:27:54.857Z,58.60
2018-11-27T15:30:37.386Z,59.40
2018-11-27T15:33:06.672Z,59.00
2018-11-27T15:35:35.643Z,60.00
2018-11-27T15:38:10.100Z,59.90
2018-11-27T15:40:50.857Z,58.60
2018-11-27T15:43:28.214Z,59.10
2018-11-27T15:46:00.488Z,58.00
2018-11-27T15:48:38.761Z,59.00
2018-11-27T15:51:19.265Z,58.30
2018-11-27T15:54:00.096Z,57.90
2018-11-27T15:56:37.368Z,57.80
2018-11-27T15:59:08.917Z,58.90
2018-11-27T16:01:47.756Z,56.60
2018-11-27T16:04:33.064Z,57.40
2018-11-27T16:07:10.135Z,56.30
2018-11-27T16:09:48.591Z,57.80
2018-11-27T16:12:27.234Z,58.40
2018-11-27T16:15:06.083Z,57.90
2018-11-27T16:17:38.742Z,56.40
2018-11-27T16:20:15.064Z,58.30
2018-11-27T16:22:51.493Z,58.00
2018-11-27T16:25:25.709Z,58.10
2018-11-27T16:27:55.696Z,59.40
2018-11-27T16:30:30.283Z,59.90
2018-11-27T16:33:05.310Z,57.80
2018-11-27T16:35:34.140Z,58.30
2018-11-27T16:38:02.322Z,59.10
2018-11-27T16:40:36.492Z,59.90
2018-11-27T16:43:04.963Z,56.50
2018-11-27T16:45:33.187Z,56.10
2018-11-27T16:48:01.319Z,56.10
2018-11-27T16:50:29.528Z,56.70
2018-11-27T16:52:57.843Z,56.10
2018-11-27T16:55:26.037Z,57.60
2018-11-27T16:57:54.320Z,56.20
2018-11-27T17:00:25.108Z,57.50
2018-11-27T17:02:55.031Z,56.90
2018-11-27T17:05:23.501Z,57.40
2018-11-27T17:07:51.655Z,57.40
2018-11-27T17:10:20.819Z,57.80
2018-11-27T17:12:51.177Z,57.30
2018-11-27T17:15:21.200Z,57.30
2018-11-27T17:17:49.476Z,57.10
2018-11-27T17:20:30.093Z,56.40
2018-11-27T17:23:00.942Z,56.50
2018-11-27T17:25:29.193Z,56.20
2018-11-27T17:28:00.813Z,57.40
2018-11-27T17:30:56.605Z,57.20
2018-11-27T17:33:34.609Z,57.30
2018-11-27T17:36:03.947Z,57.60
2018-11-27T17:38:32.731Z,58.80
2018-11-27T17:41:00.978Z,60.80
2018-11-27T17:43:29.130Z,59.90
2018-11-27T17:45:57.418Z,59.50
2018-11-27T17:48:25.608Z,58.90
2018-11-27T17:50:53.756Z,58.50
2018-11-27T17:53:21.940Z,58.10
2018-11-27T17:55:50.582Z,59.20
2018-11-27T17:58:22.849Z,59.30
2018-11-27T18:00:47.080Z,59.20
2018-11-27T18:03:15.224Z,57.80
2018-11-27T18:05:43.367Z,58.70
2018-11-27T18:08:12.140Z,59.60
2018-11-27T18:10:40.317Z,59.60
2018-11-27T18:13:08.492Z,59.70
2018-11-27T18:15:37.662Z,60.20
2018-11-27T18:18:06.861Z,58.70
2018-11-27T18:20:35.502Z,58.50
2018-11-27T18:23:04.608Z,58.50
2018-11-27T18:25:32.783Z,58.50
2018-11-27T18:28:00.919Z,58.80
2018-11-27T18:30:29.188Z,58.70
2018-11-27T18:32:57.551Z,59.40
2018-11-27T18:35:25.858Z,59.70
2018-11-27T18:37:54.043Z,59.00
2018-11-27T18:40:22.410Z,59.50
2018-11-27T18:42:50.587Z,59.20
2018-11-27T18:45:26.441Z,59.30
2018-11-27T18:47:54.692Z,58.50
2018-11-27T18:50:25.266Z,59.10
2018-11-27T18:52:53.419Z,59.30
2018-11-27T18:55:21.635Z,58.60
2018-11-27T18:57:50.005Z,59.80
2018-11-27T19:00:21.019Z,60.20
2018-11-27T19:02:49.280Z,60.80
2018-11-27T19:05:17.562Z,61.10
2018-11-27T19:07:45.941Z,60.80
2018-11-27T19:10:17.721Z,60.80
2018-11-27T19:12:46.762Z,60.90
2018-11-27T19:15:19.394Z,61.40
2018-11-27T19:17:49.965Z,60.70
2018-11-27T19:20:18.734Z,60.80
2018-11-27T19:22:46.965Z,60.50
2018-11-27T19:25:16.783Z,60.40
2018-11-27T19:27:54.473Z,61.70
2018-11-27T19:30:23.082Z,62.60
2018-11-27T19:32:51.336Z,62.00
2018-11-27T19:35:25.192Z,61.30
2018-11-27T19:37:59.095Z,62.40
2018-11-27T19:40:27.246Z,61.50
2018-11-27T19:42:55.501Z,61.50
2018-11-27T19:45:25.561Z,61.50
2018-11-27T19:47:54.641Z,60.70
2018-11-27T19:50:22.843Z,60.60
2018-11-27T19:52:53.254Z,60.60
2018-11-27T19:55:21.579Z,60.60
2018-11-27T19:57:49.900Z,60.50
2018-11-27T20:03:00.295Z,60.20
2018-11-27T20:05:29.620Z,59.60
2018-11-27T20:08:26.971Z,59.10
2018-11-27T20:10:55.418Z,59.00
2018-11-27T20:13:23.691Z,59.00
2018-11-27T20:15:51.958Z,59.30
2018-11-27T20:18:20.432Z,59.30
2018-11-27T20:20:48.711Z,58.90
2018-11-27T20:23:17.306Z,58.40
2018-11-27T20:25:45.571Z,57.90
2018-11-27T20:28:13.977Z,58.10
2018-11-27T20:30:42.497Z,57.90
2018-11-27T20:33:11.282Z,58.10
2018-11-27T20:35:39.775Z,58.20
2018-11-27T20:38:13.910Z,57.70
2018-11-27T20:40:42.552Z,58.50
2018-11-27T20:43:11.013Z,58.10
2018-11-27T20:45:39.438Z,57.70
2018-11-27T20:48:15.666Z,57.20
2018-11-27T20:50:45.408Z,56.80
2018-11-27T20:53:13.841Z,56.80
2018-11-27T20:55:42.309Z,57.40
2018-11-27T20:58:11.640Z,57.10
2018-11-27T21:00:41.952Z,57.20
2018-11-27T21:03:11.466Z,58.00
2018-11-27T21:05:40.470Z,59.30
2018-11-27T21:08:14.068Z,59.70
2018-11-27T21:10:42.777Z,59.20
2018-11-27T21:13:11.941Z,59.40
2018-11-27T21:15:42.361Z,58.40
2018-11-27T21:18:12.360Z,58.90
2018-11-27T21:20:42.548Z,58.00
2018-11-27T21:23:11.063Z,58.00
2018-11-27T21:25:39.445Z,58.20
2018-11-27T21:28:11.814Z,58.80
2018-11-27T21:30:40.287Z,58.50
2018-11-27T21:33:08.502Z,58.80
2018-11-27T21:35:36.663Z,58.40
2018-11-27T21:38:05.364Z,58.40
2018-11-27T21:40:34.511Z,58.00
2018-11-27T21:43:02.792Z,58.70
2018-11-27T21:45:31.103Z,58.70
2018-11-27T21:47:59.485Z,58.40
2018-11-27T21:50:33.304Z,58.00
2018-11-27T21:53:01.628Z,58.80
2018-11-27T21:55:29.816Z,59.20
2018-11-27T21:57:58.011Z,58.70
2018-11-27T22:00:26.916Z,58.90
2018-11-27T22:02:55.350Z,59.10
2018-11-27T22:05:23.565Z,58.60
2018-11-27T22:07:51.774Z,58.80
2018-11-27T22:10:21.732Z,58.20
2018-11-27T22:12:53.000Z,58.80
2018-11-27T22:15:26.848Z,58.50
2018-11-27T22:17:56.519Z,59.20
2018-11-27T22:20:24.707Z,58.30
2018-11-27T22:22:52.907Z,58.10
2018-11-27T22:25:21.029Z,58.20
2018-11-27T22:27:49.358Z,58.50
2018-11-27T22:30:18.636Z,59.00
2018-11-27T22:32:49.143Z,59.00
2018-11-27T22:35:18.003Z,58.60
2018-11-27T22:37:46.218Z,58.70
2018-11-27T22:40:17.807Z,58.90
2018-11-27T22:42:46.792Z,58.60
2018-11-27T22:45:23.222Z,58.70
2018-11-27T22:47:51.673Z,58.50
2018-11-27T22:50:19.873Z,58.60
2018-11-27T22:52:48.097Z,58.60
2018-11-27T22:55:16.282Z,58.80
2018-11-27T22:57:54.061Z,58.50
2018-11-27T23:00:29.312Z,58.60
2018-11-27T23:02:57.651Z,58.70
2018-11-27T23:05:25.838Z,58.70
2018-11-27T23:07:53.944Z,59.00
2018-11-27T23:10:22.143Z,58.50
2018-11-27T23:12:50.373Z,59.10
2018-11-27T23:15:20.335Z,59.30
2018-11-27T23:17:48.550Z,59.00
2018-11-27T23:20:18.246Z,59.00
2018-11-27T23:22:46.478Z,58.70
2018-11-27T23:25:16.228Z,58.40
2018-11-27T23:27:45.053Z,58.90
2018-11-27T23:30:19.089Z,59.00
2018-11-27T23:32:47.504Z,58.10
2018-11-27T23:35:15.760Z,58.20
2018-11-27T23:37:44.247Z,58.50
2018-11-27T23:40:15.077Z,58.10
2018-11-27T23:42:43.557Z,58.10
2018-11-27T23:45:14.865Z,57.60
2018-11-27T23:47:48.166Z,58.50
2018-11-27T23:50:17.585Z,57.80
2018-11-27T23:52:45.952Z,58.40
2018-11-27T23:55:15.287Z,58.00
2018-11-27T23:57:43.996Z,58.10
